createdAt,value
2022-11-02T00:00:32.533Z,90.50
2022-11-02T00:02:59.368Z,90.30
2022-11-02T00:05:26.587Z,90.20
2022-11-02T00:07:55.027Z,90.20
2022-11-02T00:10:23.075Z,90.00
2022-11-02T00:12:50.702Z,90.10
2022-11-02T00:15:18.329Z,90.00
2022-11-02T00:17:50.889Z,90.10
2022-11-02T00:20:19.521Z,90.00
2022-11-02T00:22:48.275Z,90.20
2022-11-02T00:25:18.159Z,90.20
2022-11-02T00:27:44.916Z,90.20
2022-11-02T00:30:11.792Z,90.10
2022-11-02T00:32:38.693Z,90.40
2022-11-02T00:35:06.247Z,90.70
2022-11-02T00:40:06.142Z,90.90
2022-11-02T00:42:32.917Z,91.20
2022-11-02T00:44:59.662Z,91.90
2022-11-02T00:47:26.417Z,92.40
2022-11-02T00:49:53.160Z,92.70
2022-11-02T00:52:19.892Z,93.00
2022-11-02T00:54:46.855Z,93.10
2022-11-02T00:57:13.766Z,93.30
2022-11-02T00:59:40.482Z,93.00
2022-11-02T01:02:07.421Z,93.20
2022-11-02T01:04:34.250Z,93.00
2022-11-02T01:07:02.947Z,92.80
2022-11-02T01:09:29.847Z,92.70
2022-11-02T01:11:56.611Z,92.20
2022-11-02T01:14:23.363Z,92.00
2022-11-02T01:16:50.294Z,91.60
2022-11-02T01:19:17.039Z,91.40
2022-11-02T01:21:43.796Z,91.60
2022-11-02T01:24:10.578Z,91.50
2022-11-02T01:26:37.421Z,91.90
2022-11-02T01:29:04.187Z,91.50
2022-11-02T01:31:30.923Z,91.60
2022-11-02T01:33:57.636Z,92.00
2022-11-02T01:36:24.413Z,92.70
2022-11-02T01:38:51.256Z,92.80
2022-11-02T01:41:18.510Z,93.30
2022-11-02T01:43:47.179Z,93.40
2022-11-02T01:46:21.686Z,93.50
2022-11-02T01:49:03.707Z,93.50
2022-11-02T01:51:38.374Z,93.70
2022-11-02T01:54:20.890Z,93.90
2022-11-02T01:56:53.593Z,93.80
2022-11-02T01:59:26.533Z,94.00
2022-11-02T02:01:54.532Z,94.10
2022-11-02T02:04:22.554Z,94.20
2022-11-02T02:06:50.301Z,94.40
2022-11-02T02:09:17.953Z,94.50
2022-11-02T02:11:44.694Z,94.60
2022-11-02T02:14:17.325Z,94.60
2022-11-02T02:17:08.813Z,94.70
2022-11-02T02:19:42.107Z,94.40
2022-11-02T02:22:27.500Z,94.40
2022-11-02T02:25:06.395Z,94.10
2022-11-02T02:28:21.288Z,93.70
2022-11-02T02:30:57.870Z,93.20
2022-11-02T02:33:28.620Z,92.60
2022-11-02T02:36:34.515Z,91.90
2022-11-02T02:39:07.475Z,91.20
2022-11-02T02:41:40.985Z,90.60
2022-11-02T02:44:16.256Z,90.60
2022-11-02T02:46:55.869Z,89.80
2022-11-02T02:49:29.018Z,88.70
2022-11-02T02:51:58.352Z,89.90
2022-11-02T02:54:36.411Z,89.70
2022-11-02T02:57:13.198Z,90.00
2022-11-02T02:59:45.925Z,89.80
2022-11-02T03:02:19.695Z,90.00
2022-11-02T03:04:46.618Z,89.90
2022-11-02T03:07:19.277Z,89.90
2022-11-02T03:09:57.309Z,90.10
2022-11-02T03:12:27.010Z,90.20
2022-11-02T03:15:16.062Z,90.00
2022-11-02T03:18:12.010Z,90.10
2022-11-02T03:21:07.774Z,90.50
2022-11-02T03:24:06.354Z,91.00
2022-11-02T03:26:46.641Z,91.10
2022-11-02T03:29:28.710Z,91.20
2022-11-02T03:32:00.454Z,91.20
2022-11-02T03:34:46.872Z,91.60
2022-11-02T03:37:22.599Z,92.30
2022-11-02T03:39:53.104Z,92.50
2022-11-02T03:42:23.819Z,92.30
2022-11-02T03:45:06.021Z,92.00
2022-11-02T03:47:34.231Z,92.20
2022-11-02T03:50:02.242Z,92.30
2022-11-02T03:52:32.138Z,92.40
2022-11-02T03:55:19.317Z,92.00
2022-11-02T03:57:48.049Z,92.10
2022-11-02T04:00:20.286Z,92.20
2022-11-02T04:02:51.296Z,91.80
2022-11-02T04:05:18.801Z,91.80
2022-11-02T04:08:09.297Z,92.20
2022-11-02T04:10:36.053Z,91.80
2022-11-02T04:13:21.474Z,91.70
2022-11-02T04:15:48.186Z,91.60
2022-11-02T04:18:33.428Z,91.70
2022-11-02T04:21:00.140Z,91.40
2022-11-02T04:23:45.505Z,91.40
2022-11-02T04:26:12.195Z,91.30
2022-11-02T04:28:38.905Z,91.10
2022-11-02T04:31:05.625Z,91.10
2022-11-02T04:33:35.267Z,90.80
2022-11-02T04:36:03.938Z,90.50
2022-11-02T04:38:40.668Z,90.60
2022-11-02T04:41:30.819Z,90.10
2022-11-02T04:43:58.046Z,90.60
2022-11-02T04:46:26.960Z,91.00
2022-11-02T04:48:53.878Z,91.50
2022-11-02T04:51:21.804Z,91.40
2022-11-02T04:53:49.328Z,91.50
2022-11-02T04:56:16.442Z,91.80
2022-11-02T04:58:43.356Z,91.30
2022-11-02T05:01:15.178Z,91.50
2022-11-02T05:03:42.784Z,91.80
2022-11-02T05:06:11.251Z,91.30
2022-11-02T05:08:38.677Z,91.50
2022-11-02T05:11:05.554Z,91.60
2022-11-02T05:13:32.590Z,92.00
2022-11-02T05:16:00.057Z,92.20
2022-11-02T05:18:28.179Z,92.40
2022-11-02T05:21:00.658Z,92.60
2022-11-02T05:23:28.439Z,92.50
2022-11-02T05:26:06.104Z,92.40
2022-11-02T05:28:33.597Z,92.50
2022-11-02T05:31:01.722Z,92.60
2022-11-02T05:33:30.835Z,92.60
2022-11-02T05:35:59.164Z,92.60
2022-11-02T05:38:26.944Z,92.50
2022-11-02T05:40:55.369Z,92.70
2022-11-02T05:43:22.182Z,92.70
2022-11-02T05:46:02.030Z,92.70
2022-11-02T05:48:32.910Z,92.90
2022-11-02T05:51:01.597Z,93.10
2022-11-02T05:53:33.851Z,93.50
2022-11-02T05:56:01.852Z,93.30
2022-11-02T05:58:29.214Z,93.00
2022-11-02T06:00:59.825Z,93.00
2022-11-02T06:03:26.585Z,93.00
2022-11-02T06:06:01.620Z,92.90
2022-11-02T06:08:31.114Z,92.90
2022-11-02T06:10:57.855Z,93.00
2022-11-02T06:13:24.596Z,93.10
2022-11-02T06:15:51.405Z,93.00
2022-11-02T06:18:18.158Z,93.00
2022-11-02T06:20:44.924Z,93.10
2022-11-02T06:23:14.436Z,93.20
2022-11-02T06:25:41.190Z,93.10
2022-11-02T06:28:07.941Z,93.10
2022-11-02T06:30:34.827Z,93.00
2022-11-02T06:33:06.767Z,92.70
2022-11-02T06:35:34.067Z,92.70
2022-11-02T06:38:00.813Z,92.20
2022-11-02T06:40:28.270Z,91.70
2022-11-02T06:45:46.382Z,91.10
2022-11-02T06:48:13.290Z,90.80
2022-11-02T06:50:40.063Z,90.50
2022-11-02T06:53:06.999Z,90.40
2022-11-02T06:55:34.094Z,90.20
2022-11-02T06:58:00.815Z,89.70
2022-11-02T07:00:27.634Z,89.20
2022-11-02T07:03:06.917Z,88.00
2022-11-02T07:05:34.249Z,86.70
2022-11-02T07:08:01.125Z,87.00
2022-11-02T07:10:28.748Z,85.90
2022-11-02T07:12:56.926Z,86.70
2022-11-02T07:15:25.969Z,85.70
2022-11-02T07:17:53.678Z,85.00
2022-11-02T07:20:21.153Z,84.40
2022-11-02T07:22:55.561Z,83.60
2022-11-02T07:25:22.769Z,83.80
2022-11-02T07:27:49.573Z,82.80
2022-11-02T07:30:16.706Z,79.80
2022-11-02T07:32:44.984Z,78.10
2022-11-02T07:35:15.573Z,76.70
2022-11-02T07:37:43.321Z,76.00
2022-11-02T07:40:11.626Z,74.60
2022-11-02T07:42:46.576Z,74.20
2022-11-02T07:45:13.935Z,73.10
2022-11-02T07:47:47.515Z,72.50
2022-11-02T07:50:16.755Z,71.10
2022-11-02T07:52:47.894Z,69.30
2022-11-02T07:55:16.315Z,69.10
2022-11-02T07:57:43.815Z,68.70
2022-11-02T08:00:12.027Z,67.80
2022-11-02T08:02:39.308Z,66.10
2022-11-02T08:05:06.601Z,65.00
2022-11-02T08:07:33.337Z,64.00
2022-11-02T08:10:00.071Z,63.90
2022-11-02T08:12:27.607Z,62.70
2022-11-02T08:14:54.435Z,62.10
2022-11-02T08:17:21.966Z,61.60
2022-11-02T08:19:48.730Z,61.40
2022-11-02T08:22:15.517Z,61.20
2022-11-02T08:24:42.215Z,61.80
2022-11-02T08:27:08.998Z,61.50
2022-11-02T08:29:36.863Z,61.00
2022-11-02T08:32:03.847Z,60.70
2022-11-02T08:34:30.586Z,61.00
2022-11-02T08:36:57.527Z,60.90
2022-11-02T08:39:24.296Z,60.40
2022-11-02T08:41:51.117Z,60.50
2022-11-02T08:44:17.879Z,60.30
2022-11-02T08:46:44.630Z,60.00
2022-11-02T08:49:11.463Z,60.80
2022-11-02T08:51:38.164Z,60.60
2022-11-02T08:54:04.994Z,60.40
2022-11-02T08:56:31.769Z,59.50
2022-11-02T08:58:58.468Z,60.00
2022-11-02T09:01:25.445Z,59.90
2022-11-02T09:03:52.254Z,59.80
2022-11-02T09:06:19.022Z,59.70
2022-11-02T09:08:45.802Z,58.80
2022-11-02T09:11:12.617Z,59.00
2022-11-02T09:13:39.809Z,59.10
2022-11-02T09:16:06.955Z,58.90
2022-11-02T09:18:33.718Z,58.90
2022-11-02T09:21:04.867Z,58.60
2022-11-02T09:23:32.064Z,58.00
2022-11-02T09:26:00.055Z,57.80
2022-11-02T09:28:27.070Z,57.70
2022-11-02T09:30:53.881Z,57.40
2022-11-02T09:33:20.671Z,57.30
2022-11-02T09:35:49.012Z,57.90
2022-11-02T09:38:18.317Z,57.20
2022-11-02T09:40:49.687Z,57.70
2022-11-02T09:43:37.680Z,57.00
2022-11-02T09:46:34.034Z,56.70
2022-11-02T09:49:06.169Z,56.50
2022-11-02T09:52:02.385Z,56.50
2022-11-02T09:54:47.401Z,56.00
2022-11-02T09:57:25.604Z,55.80
2022-11-02T09:59:52.403Z,54.90
2022-11-02T10:02:50.505Z,55.20
2022-11-02T10:05:46.307Z,55.40
2022-11-02T10:08:22.985Z,53.90
2022-11-02T10:11:18.833Z,53.20
2022-11-02T10:14:19.634Z,52.90
2022-11-02T10:16:52.419Z,52.20
2022-11-02T10:19:23.856Z,51.40
2022-11-02T10:21:57.263Z,51.10
2022-11-02T10:24:24.867Z,50.80
2022-11-02T10:26:56.794Z,51.10
2022-11-02T10:29:30.179Z,51.20
2022-11-02T10:31:56.966Z,50.60
2022-11-02T10:34:28.787Z,50.70
2022-11-02T10:37:47.307Z,51.50
2022-11-02T10:40:30.303Z,51.00
2022-11-02T10:43:26.941Z,49.90
2022-11-02T10:46:02.197Z,50.00
2022-11-02T10:48:48.147Z,49.80
2022-11-02T10:51:17.747Z,50.40
2022-11-02T10:53:50.995Z,49.00
2022-11-02T10:56:21.498Z,49.90
2022-11-02T10:58:54.713Z,48.30
2022-11-02T11:01:21.668Z,48.70
2022-11-02T11:04:04.386Z,48.40
2022-11-02T11:06:43.043Z,48.60
2022-11-02T11:09:15.820Z,48.30
2022-11-02T11:11:55.708Z,48.00
2022-11-02T11:20:41.354Z,48.10
2022-11-02T11:23:25.530Z,47.90
2022-11-02T11:26:05.272Z,47.50
2022-11-02T11:28:33.533Z,46.70
2022-11-02T11:31:17.442Z,46.60
2022-11-02T11:33:58.251Z,46.20
2022-11-02T11:36:30.711Z,45.80
2022-11-02T11:39:07.675Z,45.40
2022-11-02T11:41:40.065Z,45.50
2022-11-02T11:44:14.572Z,45.60
2022-11-02T11:46:47.609Z,45.80
2022-11-02T11:49:35.912Z,46.00
2022-11-02T11:52:17.443Z,46.10
2022-11-02T11:54:53.468Z,45.90
2022-11-02T11:57:23.372Z,45.50
2022-11-02T11:59:58.790Z,45.50
2022-11-02T12:02:32.265Z,45.10
2022-11-02T12:05:02.210Z,44.80
2022-11-02T12:07:34.663Z,44.80
2022-11-02T12:10:08.636Z,44.80
2022-11-02T12:12:53.950Z,45.00
2022-11-02T12:15:26.267Z,44.70
2022-11-02T12:18:05.196Z,44.80
2022-11-02T12:20:39.493Z,44.90
2022-11-02T12:23:24.947Z,44.50
2022-11-02T12:26:26.832Z,44.90
2022-11-02T12:29:18.613Z,44.50
2022-11-02T12:32:02.513Z,44.10
2022-11-02T12:34:46.584Z,43.80
2022-11-02T12:37:46.464Z,43.90
2022-11-02T12:40:41.366Z,44.00
2022-11-02T12:43:26.877Z,44.00
2022-11-02T12:46:16.387Z,44.00
2022-11-02T12:49:08.875Z,43.50
2022-11-02T12:52:06.456Z,43.70
2022-11-02T12:54:43.374Z,44.00
2022-11-02T12:57:18.693Z,43.40
2022-11-02T12:59:46.532Z,43.70
2022-11-02T13:02:15.236Z,43.60
2022-11-02T13:05:05.655Z,43.60
2022-11-02T13:07:41.484Z,43.70
2022-11-02T13:10:19.318Z,43.60
2022-11-02T13:12:52.552Z,43.40
2022-11-02T13:15:23.204Z,44.10
2022-11-02T13:17:52.990Z,44.00
2022-11-02T13:20:27.461Z,44.20
2022-11-02T13:23:07.265Z,44.20
2022-11-02T13:25:50.055Z,44.00
2022-11-02T13:28:38.022Z,44.00
2022-11-02T13:31:12.704Z,44.60
2022-11-02T13:33:48.080Z,44.10
2022-11-02T13:36:15.522Z,44.20
2022-11-02T13:38:53.688Z,44.60
2022-11-02T13:41:54.246Z,44.80
2022-11-02T13:44:33.102Z,44.50
2022-11-02T13:47:24.678Z,45.20
2022-11-02T13:49:53.547Z,45.40
2022-11-02T13:52:42.087Z,45.90
2022-11-02T13:55:15.604Z,45.80
2022-11-02T13:57:49.894Z,46.10
2022-11-02T14:00:22.716Z,45.90
2022-11-02T14:02:53.810Z,45.80
2022-11-02T14:05:41.196Z,45.90
2022-11-02T14:08:11.024Z,46.10
2022-11-02T14:10:41.029Z,46.40
2022-11-02T14:13:17.370Z,46.30
2022-11-02T14:15:44.415Z,46.80
2022-11-02T14:18:16.026Z,46.90
2022-11-02T14:20:47.390Z,47.90
2022-11-02T14:23:14.485Z,47.90
2022-11-02T14:25:48.713Z,47.90
2022-11-02T14:28:21.870Z,47.80
2022-11-02T14:31:03.866Z,48.60
2022-11-02T14:33:57.700Z,48.90
2022-11-02T14:36:39.263Z,49.40
2022-11-02T14:39:22.629Z,49.80
2022-11-02T14:42:10.836Z,50.00
2022-11-02T14:45:14.311Z,50.60
2022-11-02T14:47:41.259Z,51.60
2022-11-02T14:50:10.895Z,51.90
2022-11-02T14:52:38.673Z,51.90
2022-11-02T14:55:27.637Z,51.90
2022-11-02T14:57:59.551Z,52.00
2022-11-02T15:00:35.477Z,52.10
2022-11-02T15:03:05.815Z,52.60
2022-11-02T15:05:37.856Z,53.30
2022-11-02T15:08:16.024Z,53.50
2022-11-02T15:10:45.556Z,53.70
2022-11-02T15:13:21.454Z,53.50
2022-11-02T15:15:50.938Z,53.20
2022-11-02T15:18:22.933Z,53.30
2022-11-02T15:21:11.395Z,53.70
2022-11-02T15:23:48.941Z,53.60
2022-11-02T15:26:45.807Z,53.70
2022-11-02T15:29:37.409Z,53.50
2022-11-02T15:32:09.907Z,53.40
2022-11-02T15:34:45.558Z,53.20
2022-11-02T15:37:18.436Z,53.20
2022-11-02T15:39:54.004Z,53.50
2022-11-02T15:42:48.279Z,54.70
2022-11-02T15:45:46.486Z,54.10
2022-11-02T15:48:36.241Z,54.20
2022-11-02T15:51:11.984Z,55.50
2022-11-02T15:54:00.818Z,56.20
2022-11-02T15:56:49.353Z,56.10
2022-11-02T15:59:18.781Z,56.10
2022-11-02T16:01:45.798Z,56.20
2022-11-02T16:04:21.348Z,56.50
2022-11-02T16:06:49.572Z,56.80
2022-11-02T16:09:37.831Z,57.10
2022-11-02T16:12:24.333Z,58.20
2022-11-02T16:14:55.933Z,58.80
2022-11-02T16:17:31.577Z,59.70
2022-11-02T16:20:11.937Z,60.70
2022-11-02T16:22:39.154Z,61.80
2022-11-02T16:25:19.511Z,62.50
2022-11-02T16:27:46.411Z,63.10
2022-11-02T16:30:23.066Z,64.00
2022-11-02T16:32:58.652Z,64.50
2022-11-02T16:35:27.119Z,64.50
2022-11-02T16:37:53.885Z,64.70
2022-11-02T16:40:21.204Z,65.40
2022-11-02T16:42:51.575Z,65.40
2022-11-02T16:45:38.591Z,65.60
2022-11-02T16:48:17.048Z,66.30
2022-11-02T16:51:16.359Z,66.70
2022-11-02T16:53:43.707Z,67.50
2022-11-02T16:56:29.355Z,67.70
2022-11-02T16:59:04.841Z,68.70
2022-11-02T17:01:37.777Z,70.10
2022-11-02T17:04:24.182Z,70.20
2022-11-02T17:06:54.491Z,70.10
2022-11-02T17:09:23.046Z,70.00
2022-11-02T17:11:50.811Z,70.00
2022-11-02T17:14:20.289Z,70.00
2022-11-02T17:17:27.140Z,70.60
2022-11-02T17:20:06.318Z,71.10
2022-11-02T17:22:37.217Z,71.70
2022-11-02T17:25:18.856Z,72.60
2022-11-02T17:27:46.760Z,73.30
2022-11-02T17:30:35.364Z,73.50
2022-11-02T17:33:08.971Z,73.90
2022-11-02T17:35:36.168Z,74.10
2022-11-02T17:38:03.613Z,74.90
2022-11-02T17:40:31.908Z,75.50
2022-11-02T17:42:58.666Z,76.40
2022-11-02T17:45:29.843Z,76.20
2022-11-02T17:48:02.104Z,75.90
2022-11-02T17:50:31.497Z,75.00
2022-11-02T17:52:59.756Z,75.30
2022-11-02T17:55:31.753Z,75.00
2022-11-02T17:57:58.844Z,75.20
2022-11-02T18:00:27.826Z,75.10
2022-11-02T18:02:56.766Z,75.60
2022-11-02T18:05:28.116Z,76.10
2022-11-02T18:07:57.354Z,76.50
2022-11-02T18:10:37.402Z,76.50
2022-11-02T18:13:04.426Z,76.00
2022-11-02T18:15:33.010Z,75.90
2022-11-02T18:18:00.237Z,76.20
2022-11-02T18:20:28.615Z,76.20
2022-11-02T18:22:57.058Z,75.90
2022-11-02T18:25:26.491Z,76.20
2022-11-02T18:27:54.007Z,76.30
2022-11-02T18:30:20.893Z,76.70
2022-11-02T18:32:47.957Z,77.40
2022-11-02T18:35:19.757Z,77.30
2022-11-02T18:37:47.054Z,77.30
2022-11-02T18:40:16.993Z,77.60
2022-11-02T18:42:44.384Z,77.20
2022-11-02T18:45:13.570Z,77.30
2022-11-02T18:47:41.591Z,77.10
2022-11-02T18:50:10.490Z,77.40
2022-11-02T18:52:37.332Z,77.30
2022-11-02T18:55:05.296Z,77.80
2022-11-02T18:57:32.864Z,78.40
2022-11-02T19:00:02.287Z,78.60
2022-11-02T19:02:29.551Z,78.50
2022-11-02T19:04:56.402Z,78.90
2022-11-02T19:07:41.593Z,79.30
2022-11-02T19:10:08.843Z,78.40
2022-11-02T19:12:35.873Z,79.10
2022-11-02T19:15:02.767Z,79.80
2022-11-02T19:17:29.932Z,79.70
2022-11-02T19:19:57.260Z,79.70
2022-11-02T19:22:25.973Z,80.60
2022-11-02T19:24:52.814Z,81.60
2022-11-02T19:27:21.979Z,81.30
2022-11-02T19:29:49.083Z,81.80
2022-11-02T19:32:16.588Z,81.40
2022-11-02T19:34:43.761Z,80.60
2022-11-02T19:37:10.661Z,79.90
2022-11-02T19:39:37.418Z,80.00
2022-11-02T19:42:07.148Z,80.30
2022-11-02T19:44:37.086Z,80.50
2022-11-02T19:47:09.009Z,80.30
2022-11-02T19:49:35.744Z,80.10
2022-11-02T19:52:02.592Z,79.70
2022-11-02T19:54:29.393Z,80.00
2022-11-02T19:56:56.178Z,80.60
2022-11-02T19:59:22.931Z,80.80
2022-11-02T20:01:51.020Z,80.60
2022-11-02T20:04:17.890Z,81.90
2022-11-02T20:06:45.081Z,81.70
2022-11-02T20:09:17.593Z,81.40
2022-11-02T20:11:45.518Z,81.70
2022-11-02T20:14:14.524Z,81.60
2022-11-02T20:16:41.747Z,81.70
2022-11-02T20:19:09.284Z,83.30
2022-11-02T20:21:41.616Z,82.10
2022-11-02T20:24:10.381Z,81.50
2022-11-02T20:26:38.109Z,81.30
2022-11-02T20:29:06.351Z,80.00
2022-11-02T20:31:36.352Z,79.90
2022-11-02T20:34:06.363Z,80.00
2022-11-02T20:36:34.675Z,79.80
2022-11-02T20:39:03.368Z,80.40
2022-11-02T20:41:30.171Z,80.60
2022-11-02T20:43:56.984Z,80.70
2022-11-02T20:46:42.397Z,80.90
2022-11-02T20:51:57.553Z,80.30
2022-11-02T20:54:25.101Z,80.80
2022-11-02T20:56:51.887Z,81.00
2022-11-02T20:59:18.843Z,81.00
2022-11-02T21:01:46.162Z,81.40
2022-11-02T21:04:19.807Z,80.60
2022-11-02T21:06:49.115Z,79.90
2022-11-02T21:09:15.949Z,79.80
2022-11-02T21:12:01.310Z,80.30
2022-11-02T21:14:28.037Z,80.30
2022-11-02T21:16:55.421Z,80.30
2022-11-02T21:19:22.215Z,80.20
2022-11-02T21:21:49.045Z,79.70
2022-11-02T21:24:15.712Z,78.60
2022-11-02T21:26:42.477Z,78.80
2022-11-02T21:29:09.654Z,78.30
2022-11-02T21:31:36.836Z,78.40
2022-11-02T21:34:04.314Z,78.90
2022-11-02T21:36:31.164Z,78.60
2022-11-02T21:38:58.873Z,79.40
2022-11-02T21:41:28.157Z,79.80
2022-11-02T21:43:55.885Z,80.50
2022-11-02T21:46:25.525Z,80.50
2022-11-02T21:48:52.488Z,80.60
2022-11-02T21:51:20.968Z,80.90
2022-11-02T21:53:50.063Z,79.70
2022-11-02T21:56:27.728Z,78.90
2022-11-02T21:58:55.940Z,79.60
2022-11-02T22:01:43.587Z,80.10
2022-11-02T22:04:25.208Z,80.50
2022-11-02T22:06:52.732Z,81.10
2022-11-02T22:09:19.590Z,81.10
2022-11-02T22:11:46.377Z,80.00
2022-11-02T22:14:14.193Z,79.90
2022-11-02T22:16:42.837Z,79.50
2022-11-02T22:19:14.380Z,79.30
2022-11-02T22:21:44.147Z,80.10
2022-11-02T22:24:11.844Z,79.70
2022-11-02T22:26:39.668Z,79.40
2022-11-02T22:29:06.609Z,78.50
2022-11-02T22:31:35.808Z,77.70
2022-11-02T22:34:04.372Z,78.00
2022-11-02T22:36:33.311Z,78.70
2022-11-02T22:39:01.537Z,78.70
2022-11-02T22:41:35.175Z,78.20
2022-11-02T22:44:04.993Z,77.70
2022-11-02T22:46:34.524Z,78.00
2022-11-02T22:49:02.774Z,77.90
2022-11-02T22:51:31.624Z,77.30
2022-11-02T22:54:03.171Z,77.50
2022-11-02T22:56:30.420Z,77.40
2022-11-02T22:58:57.959Z,77.60
2022-11-02T23:01:26.874Z,77.50
2022-11-02T23:03:53.836Z,77.40
2022-11-02T23:06:22.282Z,77.40
2022-11-02T23:08:50.993Z,77.70
2022-11-02T23:11:21.764Z,78.50
2022-11-02T23:14:06.947Z,79.70
2022-11-02T23:16:36.251Z,79.00
2022-11-02T23:19:26.476Z,78.50
2022-11-02T23:22:27.429Z,77.90
2022-11-02T23:25:13.533Z,77.80
2022-11-02T23:28:01.979Z,79.00
2022-11-02T23:30:52.558Z,78.70
2022-11-02T23:33:19.709Z,78.70
2022-11-02T23:36:05.287Z,78.10
2022-11-02T23:38:50.866Z,78.40
2022-11-02T23:41:18.901Z,78.00
2022-11-02T23:43:46.286Z,78.10
2022-11-02T23:46:13.490Z,78.70
2022-11-02T23:48:45.866Z,78.10
2022-11-02T23:51:33.646Z,77.80
2022-11-02T23:54:19.000Z,77.20
2022-11-02T23:56:45.962Z,77.40
2022-11-02T23:59:14.489Z,78.10
